sensor_id;sensor_type;location;lat;lon;timestamp;pressure;altitude;pressure_sealevel;temperature;humidity
55763;BME280;42162;51.958;5.426;2023-11-19T00:01:10;100822.44;;;11.98;100.00
55763;BME280;42162;51.958;5.426;2023-11-19T00:03:37;100824.16;;;11.99;100.00
55763;BME280;42162;51.958;5.426;2023-11-19T00:06:05;100816.22;;;12.02;100.00
55763;BME280;42162;51.958;5.426;2023-11-19T00:08:32;100818.81;;;12.04;100.00
55763;BME280;42162;51.958;5.426;2023-11-19T00:10:59;100814.56;;;12.01;100.00
55763;BME280;42162;51.958;5.426;2023-11-19T00:13:28;100803.22;;;12.02;100.00
55763;BME280;42162;51.958;5.426;2023-11-19T00:15:55;100789.31;;;12.03;100.00
55763;BME280;42162;51.958;5.426;2023-11-19T00:18:23;100790.97;;;12.06;100.00
55763;BME280;42162;51.958;5.426;2023-11-19T00:20:50;100798.78;;;12.06;100.00
55763;BME280;42162;51.958;5.426;2023-11-19T00:23:17;100787.41;;;12.09;100.00
55763;BME280;42162;51.958;5.426;2023-11-19T00:25:45;100801.34;;;12.08;100.00
55763;BME280;42162;51.958;5.426;2023-11-19T00:28:12;100797.13;;;12.03;100.00
55763;BME280;42162;51.958;5.426;2023-11-19T00:30:39;100791.91;;;12.03;100.00
55763;BME280;42162;51.958;5.426;2023-11-19T00:33:08;100786.69;;;12.03;100.00
55763;BME280;42162;51.958;5.426;2023-11-19T00:35:35;100809.16;;;12.08;100.00
55763;BME280;42162;51.958;5.426;2023-11-19T00:38:02;100812.66;;;12.07;100.00
55763;BME280;42162;51.958;5.426;2023-11-19T00:40:30;100808.31;;;12.07;100.00
55763;BME280;42162;51.958;5.426;2023-11-19T00:42:58;100806.53;;;12.08;100.00
55763;BME280;42162;51.958;5.426;2023-11-19T00:45:27;100805.72;;;12.07;100.00
55763;BME280;42162;51.958;5.426;2023-11-19T00:47:54;100810.13;;;12.03;100.00
55763;BME280;42162;51.958;5.426;2023-11-19T00:50:21;100797.97;;;12.04;100.00
55763;BME280;42162;51.958;5.426;2023-11-19T00:52:50;100789.28;;;12.05;100.00
55763;BME280;42162;51.958;5.426;2023-11-19T00:55:17;100797.09;;;12.05;100.00
55763;BME280;42162;51.958;5.426;2023-11-19T00:57:44;100786.69;;;12.05;100.00
55763;BME280;42162;51.958;5.426;2023-11-19T01:00:12;100785.72;;;12.08;100.00
55763;BME280;42162;51.958;5.426;2023-11-19T01:02:47;100788.38;;;12.06;100.00
55763;BME280;42162;51.958;5.426;2023-11-19T01:05:18;100795.41;;;12.02;100.00
55763;BME280;42162;51.958;5.426;2023-11-19T01:07:49;100778.88;;;12.03;100.00
55763;BME280;42162;51.958;5.426;2023-11-19T01:10:18;100781.41;;;12.07;100.00
55763;BME280;42162;51.958;5.426;2023-11-19T01:12:46;100782.28;;;12.07;100.00
55763;BME280;42162;51.958;5.426;2023-11-19T01:15:13;100786.47;;;12.11;100.00
55763;BME280;42162;51.958;5.426;2023-11-19T01:17:40;100788.16;;;12.12;100.00
55763;BME280;42162;51.958;5.426;2023-11-19T01:20:19;100785.56;;;12.12;100.00
55763;BME280;42162;51.958;5.426;2023-11-19T01:22:48;100778.72;;;12.10;100.00
55763;BME280;42162;51.958;5.426;2023-11-19T01:25:16;100772.63;;;12.09;100.00
55763;BME280;42162;51.958;5.426;2023-11-19T01:27:44;100753.50;;;12.10;100.00
55763;BME280;42162;51.958;5.426;2023-11-19T01:30:11;100755.22;;;12.11;100.00
55763;BME280;42162;51.958;5.426;2023-11-19T01:32:41;100763.19;;;12.07;100.00
55763;BME280;42162;51.958;5.426;2023-11-19T01:35:09;100774.59;;;12.02;100.00
55763;BME280;42162;51.958;5.426;2023-11-19T01:37:36;100766.75;;;12.04;100.00
55763;BME280;42162;51.958;5.426;2023-11-19T01:40:04;100765.72;;;12.08;100.00
55763;BME280;42162;51.958;5.426;2023-11-19T01:42:39;100765.84;;;12.05;100.00
55763;BME280;42162;51.958;5.426;2023-11-19T01:45:07;100768.38;;;12.07;100.00
55763;BME280;42162;51.958;5.426;2023-11-19T01:47:37;100770.16;;;12.06;100.00
55763;BME280;42162;51.958;5.426;2023-11-19T01:50:06;100765.84;;;12.05;100.00
55763;BME280;42162;51.958;5.426;2023-11-19T01:52:35;100766.69;;;12.06;100.00
55763;BME280;42162;51.958;5.426;2023-11-19T01:55:07;100770.31;;;12.01;100.00
55763;BME280;42162;51.958;5.426;2023-11-19T01:57:36;100770.31;;;12.01;100.00
55763;BME280;42162;51.958;5.426;2023-11-19T02:00:06;100761.69;;;11.99;100.00
55763;BME280;42162;51.958;5.426;2023-11-19T02:02:40;100762.59;;;11.98;100.00
55763;BME280;42162;51.958;5.426;2023-11-19T02:05:08;100746.22;;;11.93;100.00
55763;BME280;42162;51.958;5.426;2023-11-19T02:07:36;100754.09;;;11.92;100.00
55763;BME280;42162;51.958;5.426;2023-11-19T02:10:03;100752.44;;;11.89;100.00
55763;BME280;42162;51.958;5.426;2023-11-19T02:12:33;100758.56;;;11.86;100.00
55763;BME280;42162;51.958;5.426;2023-11-19T02:15:03;100750.06;;;11.81;100.00
55763;BME280;42162;51.958;5.426;2023-11-19T02:17:31;100751.13;;;11.74;100.00
55763;BME280;42162;51.958;5.426;2023-11-19T02:19:58;100763.25;;;11.75;100.00
55763;BME280;42162;51.958;5.426;2023-11-19T02:22:33;100754.75;;;11.70;100.00
55763;BME280;42162;51.958;5.426;2023-11-19T02:25:04;100760.94;;;11.66;100.00
55763;BME280;42162;51.958;5.426;2023-11-19T02:27:48;100767.91;;;11.65;100.00
55763;BME280;42162;51.958;5.426;2023-11-19T02:30:18;100770.53;;;11.64;100.00
55763;BME280;42162;51.958;5.426;2023-11-19T02:32:45;100771.44;;;11.63;100.00
55763;BME280;42162;51.958;5.426;2023-11-19T02:35:13;100770.59;;;11.62;100.00
55763;BME280;42162;51.958;5.426;2023-11-19T02:37:40;100769.75;;;11.62;100.00
55763;BME280;42162;51.958;5.426;2023-11-19T02:40:08;100768.06;;;11.59;100.00
55763;BME280;42162;51.958;5.426;2023-11-19T02:42:36;100755.94;;;11.60;100.00
55763;BME280;42162;51.958;5.426;2023-11-19T02:45:04;100769.84;;;11.57;100.00
55763;BME280;42162;51.958;5.426;2023-11-19T02:47:34;100769.03;;;11.56;100.00
55763;BME280;42162;51.958;5.426;2023-11-19T02:50:01;100775.19;;;11.54;100.00
55763;BME280;42162;51.958;5.426;2023-11-19T02:52:28;100770.88;;;11.51;100.00
55763;BME280;42162;51.958;5.426;2023-11-19T02:54:56;100765.81;;;11.48;100.00
55763;BME280;42162;51.958;5.426;2023-11-19T02:57:23;100764.19;;;11.44;100.00
55763;BME280;42162;51.958;5.426;2023-11-19T02:59:51;100764.22;;;11.42;100.00
55763;BME280;42162;51.958;5.426;2023-11-19T03:02:19;100752.94;;;11.44;100.00
55763;BME280;42162;51.958;5.426;2023-11-19T03:04:46;100755.56;;;11.42;100.00
55763;BME280;42162;51.958;5.426;2023-11-19T03:07:14;100761.66;;;11.41;100.00
55763;BME280;42162;51.958;5.426;2023-11-19T03:09:41;100760.84;;;11.39;100.00
55763;BME280;42162;51.958;5.426;2023-11-19T03:12:08;100762.69;;;11.35;100.00
55763;BME280;42162;51.958;5.426;2023-11-19T03:14:35;100762.81;;;11.32;100.00
55763;BME280;42162;51.958;5.426;2023-11-19T03:17:04;100768.91;;;11.31;100.00
55763;BME280;42162;51.958;5.426;2023-11-19T03:19:32;100775.00;;;11.30;100.00
55763;BME280;42162;51.958;5.426;2023-11-19T03:22:01;100764.72;;;11.25;100.00
55763;BME280;42162;51.958;5.426;2023-11-19T03:24:28;100771.66;;;11.25;100.00
55763;BME280;42162;51.958;5.426;2023-11-19T03:26:55;100762.16;;;11.24;100.00
55763;BME280;42162;51.958;5.426;2023-11-19T03:29:23;100756.94;;;11.24;100.00
55763;BME280;42162;51.958;5.426;2023-11-19T03:31:50;100757.91;;;11.21;100.00
55763;BME280;42162;51.958;5.426;2023-11-19T03:34:17;100754.47;;;11.21;100.00
55763;BME280;42162;51.958;5.426;2023-11-19T03:36:44;100738.88;;;11.19;100.00
55763;BME280;42162;51.958;5.426;2023-11-19T03:39:12;100747.63;;;11.17;100.00
55763;BME280;42162;51.958;5.426;2023-11-19T03:41:39;100741.56;;;11.16;100.00
55763;BME280;42162;51.958;5.426;2023-11-19T03:44:08;100743.41;;;11.13;100.00
55763;BME280;42162;51.958;5.426;2023-11-19T03:46:35;100744.28;;;11.11;100.00
55763;BME280;42162;51.958;5.426;2023-11-19T03:49:03;100749.63;;;11.07;100.00
55763;BME280;42162;51.958;5.426;2023-11-19T03:51:33;100756.53;;;11.08;100.00
55763;BME280;42162;51.958;5.426;2023-11-19T03:54:01;100741.81;;;11.07;100.00
55763;BME280;42162;51.958;5.426;2023-11-19T03:56:29;100763.56;;;11.04;100.00
55763;BME280;42162;51.958;5.426;2023-11-19T03:58:57;100757.59;;;11.01;100.00
55763;BME280;42162;51.958;5.426;2023-11-19T04:01:25;100755.03;;;10.99;100.00
55763;BME280;42162;51.958;5.426;2023-11-19T04:03:52;100752.50;;;10.98;100.00
55763;BME280;42162;51.958;5.426;2023-11-19T04:06:19;100761.19;;;10.96;100.00
55763;BME280;42162;51.958;5.426;2023-11-19T04:08:46;100762.06;;;10.95;100.00
55763;BME280;42162;51.958;5.426;2023-11-19T04:11:13;100768.22;;;10.93;100.00
55763;BME280;42162;51.958;5.426;2023-11-19T04:13:40;100769.09;;;10.92;100.00
55763;BME280;42162;51.958;5.426;2023-11-19T04:16:08;100774.38;;;10.89;100.00
55763;BME280;42162;51.958;5.426;2023-11-19T04:18:35;100779.63;;;10.87;100.00
55763;BME280;42162;51.958;5.426;2023-11-19T04:21:08;100782.28;;;10.84;100.00
55763;BME280;42162;51.958;5.426;2023-11-19T04:23:35;100778.84;;;10.84;100.00
55763;BME280;42162;51.958;5.426;2023-11-19T04:26:03;100776.25;;;10.84;100.00
55763;BME280;42162;51.958;5.426;2023-11-19T04:28:34;100781.53;;;10.80;100.00
55763;BME280;42162;51.958;5.426;2023-11-19T04:31:01;100774.63;;;10.79;100.00
55763;BME280;42162;51.958;5.426;2023-11-19T04:33:30;100784.13;;;10.80;100.00
55763;BME280;42162;51.958;5.426;2023-11-19T04:35:57;100779.81;;;10.79;100.00
55763;BME280;42162;51.958;5.426;2023-11-19T04:38:24;100782.47;;;10.78;100.00
55763;BME280;42162;51.958;5.426;2023-11-19T04:40:53;100775.50;;;10.78;100.00
55763;BME280;42162;51.958;5.426;2023-11-19T04:43:21;100783.31;;;10.78;100.00
55763;BME280;42162;51.958;5.426;2023-11-19T04:45:48;100787.63;;;10.79;100.00
55763;BME280;42162;51.958;5.426;2023-11-19T04:48:15;100782.47;;;10.78;100.00
55763;BME280;42162;51.958;5.426;2023-11-19T04:50:42;100772.06;;;10.78;100.00
55763;BME280;42162;51.958;5.426;2023-11-19T04:53:09;100782.41;;;10.79;100.00
55763;BME280;42162;51.958;5.426;2023-11-19T04:55:37;100780.72;;;10.78;100.00
55763;BME280;42162;51.958;5.426;2023-11-19T04:58:04;100777.28;;;10.78;100.00
55763;BME280;42162;51.958;5.426;2023-11-19T05:00:32;100776.44;;;10.76;100.00
55763;BME280;42162;51.958;5.426;2023-11-19T05:02:59;100776.41;;;10.77;100.00
55763;BME280;42162;51.958;5.426;2023-11-19T05:05:26;100770.41;;;10.75;100.00
55763;BME280;42162;51.958;5.426;2023-11-19T05:07:54;100774.75;;;10.75;100.00
55763;BME280;42162;51.958;5.426;2023-11-19T05:10:22;100778.22;;;10.75;100.00
55763;BME280;42162;51.958;5.426;2023-11-19T05:12:49;100781.69;;;10.74;100.00
55763;BME280;42162;51.958;5.426;2023-11-19T05:15:18;100772.28;;;10.70;100.00
55763;BME280;42162;51.958;5.426;2023-11-19T05:17:45;100786.16;;;10.69;100.00
55763;BME280;42162;51.958;5.426;2023-11-19T05:20:12;100786.09;;;10.71;100.00
55763;BME280;42162;51.958;5.426;2023-11-19T05:22:42;100781.81;;;10.70;100.00
55763;BME280;42162;51.958;5.426;2023-11-19T05:25:09;100786.97;;;10.71;100.00
55763;BME280;42162;51.958;5.426;2023-11-19T05:27:38;100779.19;;;10.71;100.00
55763;BME280;42162;51.958;5.426;2023-11-19T05:30:06;100786.09;;;10.71;100.00
55763;BME280;42162;51.958;5.426;2023-11-19T05:32:34;100792.09;;;10.74;100.00
55763;BME280;42162;51.958;5.426;2023-11-19T05:35:01;100792.09;;;10.74;100.00
55763;BME280;42162;51.958;5.426;2023-11-19T05:37:29;100790.34;;;10.75;100.00
55763;BME280;42162;51.958;5.426;2023-11-19T05:39:56;100783.41;;;10.75;100.00
55763;BME280;42162;51.958;5.426;2023-11-19T05:42:23;100776.50;;;10.74;100.00
55763;BME280;42162;51.958;5.426;2023-11-19T05:44:51;100779.13;;;10.73;100.00
55763;BME280;42162;51.958;5.426;2023-11-19T05:47:19;100785.22;;;10.72;100.00
55763;BME280;42162;51.958;5.426;2023-11-19T05:49:46;100786.16;;;10.69;100.00
55763;BME280;42162;51.958;5.426;2023-11-19T05:52:13;100790.50;;;10.69;100.00
55763;BME280;42162;51.958;5.426;2023-11-19T05:54:40;100787.94;;;10.67;100.00
55763;BME280;42162;51.958;5.426;2023-11-19T05:57:08;100792.31;;;10.65;100.00
55763;BME280;42162;51.958;5.426;2023-11-19T05:59:36;100788.03;;;10.64;100.00
55763;BME280;42162;51.958;5.426;2023-11-19T06:02:03;100777.72;;;10.61;100.00
55763;BME280;42162;51.958;5.426;2023-11-19T06:04:31;100781.19;;;10.60;100.00
55763;BME280;42162;51.958;5.426;2023-11-19T06:06:58;100772.59;;;10.58;100.00
55763;BME280;42162;51.958;5.426;2023-11-19T06:09:26;100777.84;;;10.56;100.00
55763;BME280;42162;51.958;5.426;2023-11-19T06:11:53;100785.63;;;10.56;100.00
55763;BME280;42162;51.958;5.426;2023-11-19T06:14:22;100783.91;;;10.55;100.00
55763;BME280;42162;51.958;5.426;2023-11-19T06:16:51;100777.00;;;10.54;100.00
55763;BME280;42162;51.958;5.426;2023-11-19T06:19:19;100779.63;;;10.53;100.00
55763;BME280;42162;51.958;5.426;2023-11-19T06:21:47;100778.78;;;10.52;100.00
55763;BME280;42162;51.958;5.426;2023-11-19T06:24:14;100771.03;;;10.51;100.00
55763;BME280;42162;51.958;5.426;2023-11-19T06:26:41;100764.22;;;10.46;100.00
55763;BME280;42162;51.958;5.426;2023-11-19T06:29:09;100763.41;;;10.44;100.00
55763;BME280;42162;51.958;5.426;2023-11-19T06:31:36;100771.19;;;10.44;100.00
55763;BME280;42162;51.958;5.426;2023-11-19T06:34:04;100783.28;;;10.45;100.00
55763;BME280;42162;51.958;5.426;2023-11-19T06:36:31;100782.47;;;10.43;100.00
55763;BME280;42162;51.958;5.426;2023-11-19T06:38:59;100781.63;;;10.41;100.00
55763;BME280;42162;51.958;5.426;2023-11-19T06:41:27;100788.53;;;10.42;100.00
55763;BME280;42162;51.958;5.426;2023-11-19T06:43:55;100791.13;;;10.42;100.00
55763;BME280;42162;51.958;5.426;2023-11-19T06:46:23;100786.88;;;10.40;100.00
55763;BME280;42162;51.958;5.426;2023-11-19T06:48:51;100794.72;;;10.38;100.00
55763;BME280;42162;51.958;5.426;2023-11-19T06:51:18;100797.28;;;10.40;100.00
55763;BME280;42162;51.958;5.426;2023-11-19T06:53:45;100803.34;;;10.40;100.00
55763;BME280;42162;51.958;5.426;2023-11-19T06:56:20;100805.06;;;10.40;100.00
55763;BME280;42162;51.958;5.426;2023-11-19T06:58:49;100805.94;;;10.40;100.00
55763;BME280;42162;51.958;5.426;2023-11-19T07:01:17;100809.44;;;10.36;100.00
55763;BME280;42162;51.958;5.426;2023-11-19T07:03:45;100812.09;;;10.34;100.00
55763;BME280;42162;51.958;5.426;2023-11-19T07:06:14;100811.28;;;10.32;100.00
55763;BME280;42162;51.958;5.426;2023-11-19T07:08:41;100814.78;;;10.30;100.00
55763;BME280;42162;51.958;5.426;2023-11-19T07:11:12;100812.16;;;10.30;100.00
55763;BME280;42162;51.958;5.426;2023-11-19T07:13:41;100821.72;;;10.29;100.00
55763;BME280;42162;51.958;5.426;2023-11-19T07:16:09;100818.25;;;10.30;100.00
55763;BME280;42162;51.958;5.426;2023-11-19T07:18:39;100826.91;;;10.29;100.00
55763;BME280;42162;51.958;5.426;2023-11-19T07:21:07;100826.06;;;10.29;100.00
55763;BME280;42162;51.958;5.426;2023-11-19T07:23:37;100825.19;;;10.28;100.00
55763;BME280;42162;51.958;5.426;2023-11-19T07:26:05;100830.44;;;10.27;100.00
55763;BME280;42162;51.958;5.426;2023-11-19T07:28:35;100831.22;;;10.30;100.00
55763;BME280;42162;51.958;5.426;2023-11-19T07:31:02;100837.22;;;10.32;100.00
55763;BME280;42162;51.958;5.426;2023-11-19T07:33:29;100849.31;;;10.33;100.00
55763;BME280;42162;51.958;5.426;2023-11-19T07:35:57;100840.59;;;10.38;100.00
55763;BME280;42162;51.958;5.426;2023-11-19T07:38:24;100848.38;;;10.39;100.00
55763;BME280;42162;51.958;5.426;2023-11-19T07:40:51;100839.69;;;10.40;100.00
55763;BME280;42162;51.958;5.426;2023-11-19T07:43:21;100838.75;;;10.43;100.00
55763;BME280;42162;51.958;5.426;2023-11-19T07:45:48;100842.19;;;10.43;100.00
55763;BME280;42162;51.958;5.426;2023-11-19T07:48:15;100842.16;;;10.45;100.00
55763;BME280;42162;51.958;5.426;2023-11-19T07:50:42;100843.88;;;10.46;100.00
55763;BME280;42162;51.958;5.426;2023-11-19T07:53:10;100849.91;;;10.46;100.00
55763;BME280;42162;51.958;5.426;2023-11-19T07:55:38;100848.97;;;10.51;100.00
55763;BME280;42162;51.958;5.426;2023-11-19T07:58:09;100840.22;;;10.53;100.00
55763;BME280;42162;51.958;5.426;2023-11-19T08:00:36;100844.47;;;10.57;100.00
55763;BME280;42162;51.958;5.426;2023-11-19T08:03:04;100846.94;;;10.62;100.00
55763;BME280;42162;51.958;5.426;2023-11-19T08:05:32;100842.59;;;10.62;100.00
55763;BME280;42162;51.958;5.426;2023-11-19T08:07:59;100862.44;;;10.65;100.00
55763;BME280;42162;51.958;5.426;2023-11-19T08:10:26;100856.34;;;10.68;100.00
55763;BME280;42162;51.958;5.426;2023-11-19T08:12:53;100842.47;;;10.69;100.00
55763;BME280;42162;51.958;5.426;2023-11-19T08:15:21;100850.97;;;10.74;100.00
55763;BME280;42162;51.958;5.426;2023-11-19T08:17:51;100853.44;;;10.80;100.00
55763;BME280;42162;51.958;5.426;2023-11-19T08:20:18;100853.31;;;10.85;100.00
55763;BME280;42162;51.958;5.426;2023-11-19T08:22:45;100853.22;;;10.88;100.00
55763;BME280;42162;51.958;5.426;2023-11-19T08:25:12;100850.59;;;10.89;100.00
55763;BME280;42162;51.958;5.426;2023-11-19T08:27:40;100852.31;;;10.90;99.78
55763;BME280;42162;51.958;5.426;2023-11-19T08:30:07;100852.25;;;10.92;99.95
55763;BME280;42162;51.958;5.426;2023-11-19T08:32:34;100857.41;;;10.93;99.73
55763;BME280;42162;51.958;5.426;2023-11-19T08:35:02;100855.69;;;10.94;99.28
55763;BME280;42162;51.958;5.426;2023-11-19T08:37:30;100857.34;;;10.96;99.35
55763;BME280;42162;51.958;5.426;2023-11-19T08:39:57;100857.31;;;10.98;99.20
55763;BME280;42162;51.958;5.426;2023-11-19T08:42:24;100856.41;;;10.99;99.06
55763;BME280;42162;51.958;5.426;2023-11-19T08:44:51;100864.94;;;11.04;98.89
55763;BME280;42162;51.958;5.426;2023-11-19T08:47:21;100857.84;;;11.11;99.08
55763;BME280;42162;51.958;5.426;2023-11-19T08:49:52;100868.88;;;11.19;98.83
55763;BME280;42162;51.958;5.426;2023-11-19T08:52:23;100853.06;;;11.27;98.08
55763;BME280;42162;51.958;5.426;2023-11-19T08:54:50;100862.44;;;11.33;97.81
55763;BME280;42162;51.958;5.426;2023-11-19T08:57:17;100863.19;;;11.38;97.31
55763;BME280;42162;51.958;5.426;2023-11-19T08:59:44;100859.53;;;11.45;97.01
55763;BME280;42162;51.958;5.426;2023-11-19T09:02:13;100860.34;;;11.47;96.52
55763;BME280;42162;51.958;5.426;2023-11-19T09:04:40;100871.56;;;11.48;96.22
55763;BME280;42162;51.958;5.426;2023-11-19T09:07:08;100872.44;;;11.48;96.13
55763;BME280;42162;51.958;5.426;2023-11-19T09:09:38;100877.66;;;11.48;96.29
55763;BME280;42162;51.958;5.426;2023-11-19T09:12:06;100872.44;;;11.48;96.48
55763;BME280;42162;51.958;5.426;2023-11-19T09:14:33;100868.09;;;11.49;96.05
55763;BME280;42162;51.958;5.426;2023-11-19T09:17:00;100868.00;;;11.52;96.26
55763;BME280;42162;51.958;5.426;2023-11-19T09:19:27;100854.06;;;11.54;96.26
55763;BME280;42162;51.958;5.426;2023-11-19T09:21:55;100868.78;;;11.55;95.83
55763;BME280;42162;51.958;5.426;2023-11-19T09:24:22;100857.47;;;11.56;95.75
55763;BME280;42162;51.958;5.426;2023-11-19T09:26:49;100861.84;;;11.56;95.96
55763;BME280;42162;51.958;5.426;2023-11-19T09:29:17;100863.50;;;11.57;95.90
55763;BME280;42162;51.958;5.426;2023-11-19T09:31:44;100862.47;;;11.63;95.62
55763;BME280;42162;51.958;5.426;2023-11-19T09:34:11;100850.13;;;11.71;95.37
55763;BME280;42162;51.958;5.426;2023-11-19T09:36:38;100851.78;;;11.73;94.93
55763;BME280;42162;51.958;5.426;2023-11-19T09:39:11;100849.19;;;11.73;94.78
55763;BME280;42162;51.958;5.426;2023-11-19T09:41:40;100848.22;;;11.76;94.67
55763;BME280;42162;51.958;5.426;2023-11-19T09:44:09;100853.41;;;11.78;94.61
55763;BME280;42162;51.958;5.426;2023-11-19T09:46:36;100849.78;;;11.82;94.61
55763;BME280;42162;51.958;5.426;2023-11-19T09:49:05;100860.94;;;11.87;94.75
55763;BME280;42162;51.958;5.426;2023-11-19T09:51:36;100852.09;;;11.93;94.66
55763;BME280;42162;51.958;5.426;2023-11-19T09:54:03;100851.94;;;11.99;94.55
55763;BME280;42162;51.958;5.426;2023-11-19T09:56:35;100862.25;;;12.02;94.23
55763;BME280;42162;51.958;5.426;2023-11-19T09:59:05;100857.84;;;12.04;93.81
55763;BME280;42162;51.958;5.426;2023-11-19T10:01:32;100857.09;;;12.00;93.61
55763;BME280;42162;51.958;5.426;2023-11-19T10:04:01;100857.25;;;11.94;93.54
55763;BME280;42162;51.958;5.426;2023-11-19T10:06:28;100869.41;;;11.94;93.69
55763;BME280;42162;51.958;5.426;2023-11-19T10:08:56;100853.81;;;11.94;93.62
55763;BME280;42162;51.958;5.426;2023-11-19T10:11:23;100852.94;;;11.93;93.94
55763;BME280;42162;51.958;5.426;2023-11-19T10:13:53;100846.88;;;11.93;93.46
55763;BME280;42162;51.958;5.426;2023-11-19T10:16:22;100839.03;;;11.94;93.67
55763;BME280;42162;51.958;5.426;2023-11-19T10:18:55;100831.34;;;11.89;93.33
55763;BME280;42162;51.958;5.426;2023-11-19T10:21:23;100836.66;;;11.86;93.44
55763;BME280;42162;51.958;5.426;2023-11-19T10:23:53;100837.53;;;11.85;93.52
55763;BME280;42162;51.958;5.426;2023-11-19T10:26:20;100831.41;;;11.88;93.36
55763;BME280;42162;51.958;5.426;2023-11-19T10:28:48;100823.41;;;11.94;93.45
55763;BME280;42162;51.958;5.426;2023-11-19T10:31:17;100825.88;;;12.00;93.34
55763;BME280;42162;51.958;5.426;2023-11-19T10:33:45;100824.03;;;12.04;93.10
55763;BME280;42162;51.958;5.426;2023-11-19T10:36:13;100816.97;;;12.08;92.58
55763;BME280;42162;51.958;5.426;2023-11-19T10:38:51;100823.81;;;12.10;92.70
55763;BME280;42162;51.958;5.426;2023-11-19T10:41:29;100822.03;;;12.12;92.29
55763;BME280;42162;51.958;5.426;2023-11-19T10:43:59;100828.88;;;12.15;92.03
55763;BME280;42162;51.958;5.426;2023-11-19T10:46:40;100814.16;;;12.14;91.56
55763;BME280;42162;51.958;5.426;2023-11-19T10:49:08;100811.38;;;12.20;92.05
55763;BME280;42162;51.958;5.426;2023-11-19T10:51:35;100813.75;;;12.26;91.88
55763;BME280;42162;51.958;5.426;2023-11-19T10:54:04;100805.03;;;12.29;91.87
55763;BME280;42162;51.958;5.426;2023-11-19T10:56:34;100810.09;;;12.32;91.53
55763;BME280;42162;51.958;5.426;2023-11-19T10:59:02;100802.41;;;12.29;91.25
55763;BME280;42162;51.958;5.426;2023-11-19T11:01:53;100804.13;;;12.30;91.64
55763;BME280;42162;51.958;5.426;2023-11-19T11:04:24;100825.84;;;12.29;91.20
55763;BME280;42162;51.958;5.426;2023-11-19T11:06:55;100807.50;;;12.32;90.91
55763;BME280;42162;51.958;5.426;2023-11-19T11:09:29;100808.31;;;12.34;90.90
55763;BME280;42162;51.958;5.426;2023-11-19T11:11:57;100816.88;;;12.38;91.00
55763;BME280;42162;51.958;5.426;2023-11-19T11:14:26;100819.38;;;12.41;91.12
55763;BME280;42162;51.958;5.426;2023-11-19T11:16:56;100836.72;;;12.42;91.08
55763;BME280;42162;51.958;5.426;2023-11-19T11:19:23;100823.75;;;12.40;90.79
55763;BME280;42162;51.958;5.426;2023-11-19T11:21:53;100821.03;;;12.43;91.00
55763;BME280;42162;51.958;5.426;2023-11-19T11:24:29;100817.59;;;12.43;90.77
55763;BME280;42162;51.958;5.426;2023-11-19T11:27:35;100813.28;;;12.42;90.36
55763;BME280;42162;51.958;5.426;2023-11-19T11:38:08;100801.88;;;12.46;90.54
55763;BME280;42162;51.958;5.426;2023-11-19T11:40:36;100805.16;;;12.51;90.35
55763;BME280;42162;51.958;5.426;2023-11-19T11:43:03;100802.34;;;12.57;90.54
55763;BME280;42162;51.958;5.426;2023-11-19T11:45:40;100810.91;;;12.61;90.03
55763;BME280;42162;51.958;5.426;2023-11-19T11:48:17;100803.03;;;12.62;89.92
55763;BME280;42162;51.958;5.426;2023-11-19T11:50:56;100804.81;;;12.62;89.58
55763;BME280;42162;51.958;5.426;2023-11-19T11:53:24;100807.44;;;12.60;89.53
55763;BME280;42162;51.958;5.426;2023-11-19T11:55:53;100786.56;;;12.62;89.40
55763;BME280;42162;51.958;5.426;2023-11-19T11:58:30;100798.56;;;12.66;89.17
55763;BME280;42162;51.958;5.426;2023-11-19T12:00:59;100802.03;;;12.67;88.62
55763;BME280;42162;51.958;5.426;2023-11-19T12:03:31;100802.03;;;12.67;88.61
55763;BME280;42162;51.958;5.426;2023-11-19T12:06:00;100794.38;;;12.62;88.32
55763;BME280;42162;51.958;5.426;2023-11-19T12:08:34;100799.78;;;12.56;88.39
55763;BME280;42162;51.958;5.426;2023-11-19T12:11:19;100793.81;;;12.54;88.76
55763;BME280;42162;51.958;5.426;2023-11-19T12:13:54;100798.94;;;12.55;88.82
55763;BME280;42162;51.958;5.426;2023-11-19T12:16:26;100790.22;;;12.56;88.69
55763;BME280;42162;51.958;5.426;2023-11-19T12:18:56;100784.94;;;12.59;88.41
55763;BME280;42162;51.958;5.426;2023-11-19T12:21:28;100789.22;;;12.60;88.74
55763;BME280;42162;51.958;5.426;2023-11-19T12:23:58;100780.63;;;12.58;88.59
55763;BME280;42162;51.958;5.426;2023-11-19T12:26:35;100784.16;;;12.56;88.68
55763;BME280;42162;51.958;5.426;2023-11-19T12:29:03;100779.81;;;12.56;88.49
55763;BME280;42162;51.958;5.426;2023-11-19T12:31:35;100791.06;;;12.57;88.80
55763;BME280;42162;51.958;5.426;2023-11-19T12:34:07;100776.31;;;12.57;88.66
55763;BME280;42162;51.958;5.426;2023-11-19T12:36:40;100772.78;;;12.58;88.41
55763;BME280;42162;51.958;5.426;2023-11-19T12:39:08;100790.16;;;12.58;88.28
55763;BME280;42162;51.958;5.426;2023-11-19T12:41:49;100791.94;;;12.57;87.95
55763;BME280;42162;51.958;5.426;2023-11-19T12:44:17;100791.06;;;12.57;88.06
55763;BME280;42162;51.958;5.426;2023-11-19T12:46:44;100791.94;;;12.57;87.98
55763;BME280;42162;51.958;5.426;2023-11-19T12:49:11;100786.59;;;12.60;88.23
55763;BME280;42162;51.958;5.426;2023-11-19T12:51:38;100783.22;;;12.58;88.29
55763;BME280;42162;51.958;5.426;2023-11-19T12:54:05;100788.47;;;12.57;88.37
55763;BME280;42162;51.958;5.426;2023-11-19T12:56:33;100792.03;;;12.54;88.40
55763;BME280;42162;51.958;5.426;2023-11-19T12:59:10;100789.44;;;12.54;88.24